createdAt,value
2018-03-16T00:01:05.039Z,9.46
2018-03-16T00:06:05.272Z,9.45
2018-03-16T00:11:05.078Z,9.46
2018-03-16T00:16:04.439Z,9.48
2018-03-16T00:21:04.555Z,9.49
2018-03-16T00:26:04.029Z,9.48
2018-03-16T00:31:03.912Z,9.49
2018-03-16T00:36:04.343Z,9.51
2018-03-16T00:41:03.911Z,9.51
2018-03-16T00:46:04.399Z,9.51
2018-03-16T00:51:04.362Z,9.51
2018-03-16T00:56:04.302Z,9.50
2018-03-16T01:01:04.773Z,9.52
2018-03-16T01:06:04.479Z,9.52
2018-03-16T01:11:04.144Z,9.51
2018-03-16T01:16:04.286Z,9.52
2018-03-16T01:21:04.499Z,9.51
2018-03-16T01:26:04.613Z,9.52
2018-03-16T01:31:04.417Z,9.52
2018-03-16T01:36:04.531Z,9.52
2018-03-16T01:41:04.663Z,9.52
2018-03-16T01:46:04.265Z,9.51
2018-03-16T01:51:04.337Z,9.51
2018-03-16T01:56:04.161Z,9.51
2018-03-16T02:01:04.192Z,9.51
2018-03-16T02:06:04.488Z,9.51
2018-03-16T02:11:04.606Z,9.50
2018-03-16T02:16:04.028Z,9.51
2018-03-16T02:21:04.491Z,9.51
2018-03-16T02:26:04.050Z,9.50
2018-03-16T02:31:04.513Z,9.50
2018-03-16T02:36:04.275Z,9.49
2018-03-16T02:41:03.809Z,9.50
2018-03-16T02:46:04.311Z,9.49
2018-03-16T02:51:04.846Z,9.49
2018-03-16T02:56:04.593Z,9.49
2018-03-16T03:01:04.684Z,9.49
2018-03-16T03:06:04.126Z,9.49
2018-03-16T03:11:04.251Z,9.49
2018-03-16T03:16:04.518Z,9.48
2018-03-16T03:21:04.478Z,9.48
2018-03-16T03:26:04.861Z,9.49
2018-03-16T03:31:04.017Z,9.49
2018-03-16T03:36:04.484Z,9.48
2018-03-16T03:41:04.629Z,9.48
2018-03-16T03:46:04.808Z,9.48
2018-03-16T03:51:04.286Z,9.48
2018-03-16T03:56:04.413Z,9.47
2018-03-16T04:01:04.183Z,9.47
2018-03-16T04:06:04.447Z,9.46
2018-03-16T04:11:04.265Z,9.46
2018-03-16T04:16:04.072Z,9.46
2018-03-16T04:21:04.560Z,9.46
2018-03-16T04:26:03.903Z,9.46
2018-03-16T04:31:04.460Z,9.46
2018-03-16T04:36:04.336Z,9.46
2018-03-16T04:41:04.266Z,9.46
2018-03-16T04:46:04.317Z,9.45
2018-03-16T04:51:04.796Z,9.45
2018-03-16T04:56:04.508Z,9.45
2018-03-16T05:01:04.680Z,9.45
2018-03-16T05:06:04.137Z,9.45
2018-03-16T05:11:04.373Z,9.45
2018-03-16T05:16:04.492Z,9.46
2018-03-16T05:21:04.476Z,9.46
2018-03-16T05:26:04.701Z,9.48
2018-03-16T05:31:04.495Z,9.47
2018-03-16T05:36:03.991Z,9.48
2018-03-16T05:41:04.666Z,9.48
2018-03-16T05:46:04.129Z,9.49
2018-03-16T05:51:04.614Z,8.91
2018-03-16T05:56:04.394Z,9.36
2018-03-16T06:01:04.772Z,9.33
2018-03-16T06:06:04.017Z,9.33
2018-03-16T06:11:04.494Z,9.35
2018-03-16T06:16:04.387Z,9.37
2018-03-16T06:21:03.886Z,9.40
2018-03-16T06:26:03.984Z,9.47
2018-03-16T06:31:03.806Z,9.58
2018-03-16T06:36:04.678Z,9.49
2018-03-16T06:41:04.595Z,9.49
2018-03-16T06:46:04.747Z,9.50
2018-03-16T06:51:04.209Z,9.52
2018-03-16T06:56:04.348Z,9.47
2018-03-16T07:01:04.072Z,9.57
2018-03-16T07:06:04.540Z,9.46
2018-03-16T07:11:04.141Z,9.43
2018-03-16T07:16:03.893Z,9.43
2018-03-16T07:21:04.446Z,9.45
2018-03-16T07:26:04.133Z,9.51
2018-03-16T07:31:04.296Z,9.51
2018-03-16T07:36:04.805Z,9.30
2018-03-16T07:41:04.423Z,9.24
2018-03-16T07:46:04.158Z,9.22
2018-03-16T07:51:04.611Z,9.53
2018-03-16T07:56:04.472Z,9.67
2018-03-16T08:01:04.673Z,9.62
2018-03-16T08:06:04.042Z,9.72
2018-03-16T08:11:04.128Z,9.93
2018-03-16T08:16:04.107Z,10.05
2018-03-16T08:21:04.457Z,10.08
2018-03-16T08:26:03.997Z,10.04
2018-03-16T08:31:04.133Z,10.08
2018-03-16T08:36:03.860Z,10.14
2018-03-16T08:41:04.561Z,10.21
2018-03-16T08:46:05.147Z,10.24
2018-03-16T08:51:04.119Z,10.26
2018-03-16T08:56:04.264Z,10.28
2018-03-16T09:01:04.004Z,10.33
2018-03-16T09:06:04.512Z,10.38
2018-03-16T09:11:04.132Z,10.36
2018-03-16T09:16:03.787Z,10.35
2018-03-16T09:21:04.442Z,10.31
2018-03-16T09:26:04.136Z,10.22
2018-03-16T09:31:04.310Z,10.31
2018-03-16T09:36:04.731Z,10.22
2018-03-16T09:41:04.398Z,10.24
2018-03-16T09:46:04.159Z,10.27
2018-03-16T09:51:04.633Z,10.26
2018-03-16T09:56:04.381Z,10.28
2018-03-16T10:01:04.499Z,10.01
2018-03-16T10:06:03.939Z,9.86
2018-03-16T10:11:04.129Z,9.69
2018-03-16T10:16:04.171Z,9.60
2018-03-16T10:21:04.467Z,9.43
2018-03-16T10:26:04.010Z,9.35
2018-03-16T10:31:04.200Z,9.30
2018-03-16T10:36:04.210Z,9.34
2018-03-16T10:41:04.595Z,9.31
2018-03-16T10:46:04.756Z,9.31
2018-03-16T10:51:04.305Z,9.34
2018-03-16T10:56:03.946Z,9.41
2018-03-16T11:01:04.041Z,9.49
2018-03-16T11:06:04.460Z,9.55
2018-03-16T11:11:04.120Z,9.62
2018-03-16T11:16:03.777Z,9.69
2018-03-16T11:21:04.270Z,9.68
2018-03-16T11:26:04.150Z,9.70
2018-03-16T11:31:04.285Z,9.65
2018-03-16T11:36:04.664Z,9.66
2018-03-16T11:41:04.364Z,9.61
2018-03-16T11:46:04.077Z,9.58
2018-03-16T11:51:04.547Z,9.48
2018-03-16T11:56:04.439Z,9.40
2018-03-16T12:01:05.630Z,9.38
2018-03-16T12:06:03.939Z,7.56
2018-03-16T12:11:04.152Z,7.09
2018-03-16T12:16:04.326Z,6.85
2018-03-16T12:21:04.496Z,7.40
2018-03-16T12:26:03.952Z,7.94
2018-03-16T12:31:04.178Z,8.17
2018-03-16T12:36:04.254Z,8.34
2018-03-16T12:41:04.602Z,8.50
2018-03-16T12:46:04.365Z,8.66
2018-03-16T12:51:04.076Z,8.76
2018-03-16T12:56:04.212Z,8.89
2018-03-16T13:01:03.784Z,8.91
2018-03-16T13:06:04.380Z,9.08
2018-03-16T13:11:03.966Z,9.15
2018-03-16T13:16:04.148Z,9.19
2018-03-16T13:21:04.295Z,9.22
2018-03-16T13:26:04.747Z,9.28
2018-03-16T13:31:04.515Z,9.36
2018-03-16T13:36:04.408Z,9.34
2018-03-16T13:41:04.607Z,9.29
2018-03-16T13:46:04.190Z,9.34
2018-03-16T13:51:04.539Z,8.76
2018-03-16T13:56:04.341Z,8.58
2018-03-16T14:01:04.640Z,8.75
2018-03-16T14:06:03.806Z,8.84
2018-03-16T14:11:04.129Z,8.91
2018-03-16T14:16:04.292Z,8.93
2018-03-16T14:21:04.530Z,8.95
2018-03-16T14:26:03.950Z,8.93
2018-03-16T14:31:04.114Z,8.96
2018-03-16T14:36:04.154Z,8.99
2018-03-16T14:41:04.489Z,9.00
2018-03-16T14:46:04.616Z,9.01
2018-03-16T14:51:04.027Z,9.01
2018-03-16T14:56:04.474Z,9.03
2018-03-16T15:01:03.947Z,9.05
2018-03-16T15:06:04.307Z,9.07
2018-03-16T15:11:03.970Z,9.09
2018-03-16T15:16:04.100Z,7.43
2018-03-16T15:21:04.258Z,7.55
2018-03-16T15:26:04.707Z,7.91
2018-03-16T15:31:04.477Z,8.14
2018-03-16T15:36:04.633Z,8.09
2018-03-16T15:41:04.618Z,8.20
2018-03-16T15:46:04.329Z,8.29
2018-03-16T15:51:04.564Z,8.31
2018-03-16T15:56:05.049Z,8.30
2018-03-16T16:01:06.141Z,7.54
2018-03-16T16:06:05.280Z,7.83
2018-03-16T16:11:05.738Z,7.97
2018-03-16T16:16:05.029Z,8.06
2018-03-16T16:21:04.773Z,8.06
2018-03-16T16:26:04.461Z,8.14
2018-03-16T16:31:04.922Z,8.18
2018-03-16T16:36:04.841Z,8.23
2018-03-16T16:41:04.507Z,8.28
2018-03-16T16:46:03.945Z,8.26
2018-03-16T16:51:04.685Z,8.30
2018-03-16T16:56:05.110Z,8.32
2018-03-16T17:01:04.731Z,8.37
2018-03-16T17:06:05.552Z,8.41
2018-03-16T17:11:05.837Z,8.42
2018-03-16T17:16:04.425Z,8.42
2018-03-16T17:21:04.949Z,8.47
2018-03-16T17:26:04.498Z,8.50
2018-03-16T17:31:09.289Z,8.53
2018-03-16T17:36:04.746Z,8.52
2018-03-16T17:41:04.664Z,8.53
2018-03-16T17:46:04.161Z,8.55
2018-03-16T17:51:05.212Z,8.56
2018-03-16T17:56:04.415Z,8.56
2018-03-16T18:01:04.894Z,8.53
2018-03-16T18:06:04.035Z,8.26
2018-03-16T18:11:04.289Z,8.68
2018-03-16T18:16:04.409Z,8.70
2018-03-16T18:21:03.988Z,8.74
2018-03-16T18:26:04.480Z,8.78
2018-03-16T18:31:04.116Z,8.79
2018-03-16T18:36:04.547Z,8.60
2018-03-16T18:41:04.228Z,8.82
2018-03-16T18:46:04.047Z,8.88
2018-03-16T18:51:04.258Z,8.91
2018-03-16T18:56:04.702Z,8.93
2018-03-16T19:01:04.339Z,8.95
2018-03-16T19:06:04.883Z,8.98
2018-03-16T19:11:04.089Z,8.99
2018-03-16T19:16:04.495Z,9.03
2018-03-16T19:21:04.739Z,9.04
2018-03-16T19:26:04.639Z,9.06
2018-03-16T19:31:04.764Z,9.06
2018-03-16T19:36:04.895Z,9.09
2018-03-16T19:41:04.836Z,9.10
2018-03-16T19:46:05.664Z,9.12
2018-03-16T19:51:05.681Z,9.13
2018-03-16T19:56:05.461Z,9.13
2018-03-16T20:01:05.659Z,9.15
2018-03-16T20:06:06.893Z,9.16
2018-03-16T20:11:06.625Z,9.16
2018-03-16T20:16:07.095Z,9.17
2018-03-16T20:21:07.050Z,9.18
2018-03-16T20:26:05.681Z,9.19
2018-03-16T20:31:07.285Z,9.19
2018-03-16T20:36:07.481Z,9.19
2018-03-16T20:41:04.777Z,9.21
2018-03-16T20:46:05.775Z,9.22
2018-03-16T20:51:05.314Z,9.22
2018-03-16T20:56:05.419Z,9.23
2018-03-16T21:01:05.537Z,9.24
2018-03-16T21:06:05.742Z,9.25
2018-03-16T21:11:05.384Z,9.24
2018-03-16T21:16:04.906Z,9.24
2018-03-16T21:21:04.822Z,9.25
2018-03-16T21:26:05.583Z,9.24
2018-03-16T21:31:04.424Z,9.25
2018-03-16T21:36:04.607Z,9.24
2018-03-16T21:41:05.396Z,9.24
2018-03-16T21:46:04.506Z,9.24
2018-03-16T21:51:04.842Z,9.23
2018-03-16T21:56:03.917Z,9.23
2018-03-16T22:01:04.175Z,9.24
2018-03-16T22:06:05.118Z,9.24
2018-03-16T22:11:04.760Z,9.24
2018-03-16T22:16:04.568Z,9.23
2018-03-16T22:21:04.108Z,9.23
2018-03-16T22:26:04.242Z,9.23
2018-03-16T22:31:04.437Z,9.22
2018-03-16T22:36:04.512Z,9.22
2018-03-16T22:41:04.109Z,9.22
2018-03-16T22:45:05.539Z,9.23
2018-03-16T22:46:04.283Z,9.23
2018-03-16T22:51:04.489Z,9.22
2018-03-16T22:56:04.462Z,9.22
2018-03-16T23:01:04.308Z,9.21
2018-03-16T23:06:04.029Z,9.22
2018-03-16T23:11:04.272Z,9.21
2018-03-16T23:16:04.016Z,9.21
2018-03-16T23:21:04.197Z,9.19
